createdAt,value
2023-11-24T00:00:45.542Z,467.31
2023-11-24T00:05:45.415Z,467.96
2023-11-24T00:10:45.347Z,465.37
2023-11-24T00:15:45.302Z,466.66
2023-11-24T00:20:45.212Z,464.73
2023-11-24T00:25:46.033Z,463.14
2023-11-24T00:30:45.118Z,462.82
2023-11-24T00:35:45.010Z,463.14
2023-11-24T00:40:44.955Z,464.41
2023-11-24T00:45:44.866Z,468.61
2023-11-24T00:50:44.836Z,467.31
2023-11-24T00:55:44.733Z,475.21
2023-11-24T01:00:44.797Z,469.26
2023-11-24T01:05:45.652Z,473.88
2023-11-24T01:10:44.531Z,478.92
2023-11-24T01:15:44.468Z,480.63
2023-11-24T01:20:44.400Z,486.17
2023-11-24T01:25:44.321Z,492.21
2023-11-24T01:30:44.307Z,498.39
2023-11-24T01:35:44.177Z,503.23
2023-11-24T01:40:44.128Z,507.01
2023-11-24T01:45:44.113Z,507.39
2023-11-24T01:50:44.044Z,506.63
2023-11-24T01:55:43.925Z,505.87
2023-11-24T02:00:43.894Z,507.77
2023-11-24T02:05:43.781Z,511.63
2023-11-24T02:10:43.744Z,512.02
2023-11-24T02:15:43.797Z,510.47
2023-11-24T02:20:43.609Z,513.58
2023-11-24T02:25:43.519Z,512.41
2023-11-24T02:30:43.498Z,516.33
2023-11-24T02:35:43.382Z,518.71
2023-11-24T02:40:43.355Z,518.71
2023-11-24T02:45:43.237Z,517.52
2023-11-24T02:50:43.213Z,519.11
2023-11-24T02:55:43.117Z,517.12
2023-11-24T03:00:43.099Z,519.91
2023-11-24T03:05:42.978Z,523.54
2023-11-24T03:10:42.955Z,523.14
2023-11-24T03:15:42.870Z,520.71
2023-11-24T03:20:42.825Z,521.52
2023-11-24T03:25:42.720Z,521.52
2023-11-24T03:30:42.669Z,528.47
2023-11-24T03:35:42.588Z,524.36
2023-11-24T03:40:42.523Z,530.97
2023-11-24T03:45:42.463Z,530.55
2023-11-24T03:50:42.399Z,531.38
2023-11-24T03:55:42.345Z,533.91
2023-11-24T04:00:42.338Z,536.46
2023-11-24T04:05:42.185Z,536.46
2023-11-24T04:10:42.122Z,536.46
2023-11-24T04:15:42.124Z,543.81
2023-11-24T04:20:42.014Z,539.89
2023-11-24T04:25:41.917Z,544.69
2023-11-24T04:30:41.908Z,542.06
2023-11-24T04:35:41.798Z,548.68
2023-11-24T04:40:41.716Z,545.57
2023-11-24T04:45:41.665Z,550.47
2023-11-24T04:50:41.593Z,548.23
2023-11-24T04:55:41.492Z,552.72
2023-11-24T05:00:41.483Z,550.02
2023-11-24T05:05:41.372Z,553.18
2023-11-24T05:10:41.328Z,556.37
2023-11-24T05:15:41.435Z,558.68
2023-11-24T05:20:41.229Z,557.29
2023-11-24T05:25:41.121Z,557.29
2023-11-24T05:30:41.058Z,558.68
2023-11-24T05:35:40.990Z,558.22
2023-11-24T05:40:40.906Z,556.83
2023-11-24T05:45:40.884Z,558.22
2023-11-24T05:50:40.781Z,553.63
2023-11-24T05:55:40.731Z,560.54
2023-11-24T06:00:40.644Z,557.75
2023-11-24T06:05:40.691Z,561.47
2023-11-24T06:10:40.503Z,560.54
2023-11-24T06:15:40.483Z,562.88
2023-11-24T06:20:40.389Z,564.29
2023-11-24T06:25:40.358Z,568.09
2023-11-24T06:30:40.234Z,563.35
2023-11-24T06:35:40.204Z,570.01
2023-11-24T06:40:40.112Z,565.71
2023-11-24T06:45:40.058Z,567.61
2023-11-24T06:50:39.971Z,567.61
2023-11-24T06:55:39.919Z,573.41
2023-11-24T07:00:39.949Z,576.35
2023-11-24T07:05:39.848Z,571.95
2023-11-24T07:10:39.778Z,578.82
2023-11-24T07:15:39.772Z,574.87
2023-11-24T07:20:39.582Z,575.36
2023-11-24T07:25:39.521Z,577.33
2023-11-24T07:30:39.451Z,573.89
2023-11-24T07:35:39.393Z,577.33
2023-11-24T07:40:39.294Z,576.84
2023-11-24T07:45:39.386Z,573.89
2023-11-24T07:50:39.182Z,576.35
2023-11-24T07:55:39.143Z,574.38
2023-11-24T08:00:39.061Z,578.32
2023-11-24T08:05:38.975Z,584.84
2023-11-24T08:10:38.902Z,581.32
2023-11-24T08:15:38.885Z,582.82
2023-11-24T08:20:38.794Z,585.35
2023-11-24T08:25:38.736Z,587.39
2023-11-24T08:30:38.660Z,589.96
2023-11-24T08:35:38.617Z,595.17
2023-11-24T08:40:38.511Z,596.22
2023-11-24T08:45:38.510Z,598.87
2023-11-24T08:50:38.361Z,597.28
2023-11-24T08:55:38.321Z,600.47
2023-11-24T09:00:38.334Z,599.93
2023-11-24T09:05:38.199Z,597.28
2023-11-24T09:10:38.105Z,598.87
2023-11-24T09:15:38.074Z,596.22
2023-11-24T09:20:37.964Z,596.75
2023-11-24T09:25:38.002Z,601.54
2023-11-24T09:30:37.895Z,599.40
2023-11-24T09:35:37.779Z,599.40
2023-11-24T09:40:37.689Z,589.96
2023-11-24T09:45:37.670Z,573.89
2023-11-24T09:50:37.551Z,559.61
2023-11-24T09:55:37.550Z,554.54
2023-11-24T10:00:37.434Z,539.46
2023-11-24T10:05:37.376Z,515.15
2023-11-24T10:10:37.331Z,502.48
2023-11-24T10:15:37.304Z,491.85
2023-11-24T10:20:37.156Z,487.23
2023-11-24T10:25:37.127Z,474.54
2023-11-24T10:30:37.317Z,463.77
2023-11-24T10:35:36.992Z,466.34
2023-11-24T10:40:36.907Z,466.02
2023-11-24T10:45:36.859Z,468.28
2023-11-24T10:50:36.764Z,469.91
2023-11-24T10:55:36.714Z,473.88
2023-11-24T11:00:36.664Z,480.97
2023-11-24T11:05:36.630Z,485.13
2023-11-24T11:10:36.531Z,492.21
2023-11-24T11:15:36.447Z,493.65
2023-11-24T11:20:36.376Z,500.61
2023-11-24T11:25:36.323Z,507.39
2023-11-24T11:30:36.196Z,512.41
2023-11-24T11:35:36.223Z,512.41
2023-11-24T11:40:36.085Z,510.47
2023-11-24T11:45:36.061Z,502.85
2023-11-24T11:50:35.987Z,504.73
2023-11-24T11:55:35.983Z,502.48
2023-11-24T12:00:35.831Z,513.97
2023-11-24T12:05:35.789Z,517.12
2023-11-24T12:10:35.689Z,524.77
2023-11-24T12:15:35.948Z,529.71
2023-11-24T12:20:35.557Z,533.06
2023-11-24T12:25:37.358Z,535.18
2023-11-24T12:30:35.416Z,538.17
2023-11-24T12:35:35.385Z,540.76
2023-11-24T12:40:35.324Z,544.25
2023-11-24T12:45:35.298Z,545.13
2023-11-24T12:50:35.153Z,540.33
2023-11-24T12:55:36.109Z,543.81
2023-11-24T13:00:37.761Z,539.89
2023-11-24T13:05:34.957Z,543.81
2023-11-24T13:10:34.885Z,540.76
2023-11-24T13:15:34.831Z,542.06
2023-11-24T13:20:34.752Z,546.90
2023-11-24T13:25:37.758Z,549.12
2023-11-24T13:30:34.655Z,550.92
2023-11-24T13:35:34.578Z,552.27
2023-11-24T13:40:34.528Z,557.29
2023-11-24T13:45:36.952Z,570.98
2023-11-24T13:50:34.386Z,567.14
2023-11-24T13:55:35.295Z,571.46
2023-11-24T14:00:34.252Z,575.36
2023-11-24T14:05:34.184Z,579.32
2023-11-24T14:10:34.205Z,579.32
2023-11-24T14:15:34.036Z,578.82
2023-11-24T14:20:33.949Z,581.82
2023-11-24T14:25:33.896Z,587.39
2023-11-24T14:30:33.846Z,585.86
2023-11-24T14:35:33.766Z,586.88
2023-11-24T14:40:33.773Z,593.07
2023-11-24T14:45:33.647Z,589.96
2023-11-24T14:50:33.555Z,593.07
2023-11-24T14:55:33.537Z,594.64
2023-11-24T15:00:33.429Z,598.34
2023-11-24T15:05:33.383Z,597.81
2023-11-24T15:10:33.298Z,609.15
2023-11-24T15:15:33.273Z,608.05
2023-11-24T15:20:33.153Z,608.05
2023-11-24T15:25:33.114Z,611.35
2023-11-24T15:30:33.047Z,614.70
2023-11-24T15:35:32.980Z,613.02
2023-11-24T15:40:32.897Z,617.51
2023-11-24T15:45:32.867Z,618.65
2023-11-24T15:50:32.774Z,624.38
2023-11-24T15:55:32.720Z,626.11
2023-11-24T16:00:32.656Z,633.76
2023-11-24T16:05:32.590Z,631.98
2023-11-24T16:10:32.534Z,639.17
2023-11-24T16:15:32.440Z,642.83
2023-11-24T16:20:32.362Z,649.01
2023-11-24T16:25:32.277Z,646.53
2023-11-24T16:30:32.217Z,642.21
2023-11-24T16:35:32.148Z,645.29
2023-11-24T16:40:32.126Z,649.01
2023-11-24T16:45:32.942Z,651.52
2023-11-24T16:50:31.956Z,652.78
2023-11-24T16:55:31.922Z,657.24
2023-11-24T17:00:31.802Z,657.24
2023-11-24T17:05:31.789Z,664.36
2023-11-24T17:10:31.736Z,663.05
2023-11-24T17:15:31.582Z,664.36
2023-11-24T17:20:31.568Z,670.30
2023-11-24T17:25:36.765Z,679.08
2023-11-24T17:30:32.463Z,676.35
2023-11-24T17:35:31.346Z,675.00
2023-11-24T17:40:31.350Z,677.03
2023-11-24T17:45:31.211Z,680.45
2023-11-24T17:50:31.211Z,684.59
2023-11-24T17:55:31.122Z,685.99
2023-11-24T18:00:31.059Z,690.20
2023-11-24T18:05:30.936Z,695.90
2023-11-24T18:10:30.930Z,696.62
2023-11-24T18:15:30.848Z,698.78
2023-11-24T18:20:30.774Z,700.96
2023-11-24T18:25:30.727Z,702.42
2023-11-24T18:30:30.641Z,703.15
2023-11-24T18:35:30.557Z,702.42
2023-11-24T18:40:30.597Z,702.42
2023-11-24T18:45:30.436Z,702.42
2023-11-24T18:50:30.385Z,703.89
2023-11-24T18:55:30.357Z,707.58
2023-11-24T19:00:30.301Z,708.33
2023-11-24T19:05:30.155Z,709.82
2023-11-24T19:10:30.140Z,709.07
2023-11-24T19:15:30.030Z,714.33
2023-11-24T19:20:30.000Z,709.82
2023-11-24T19:25:29.993Z,712.82
2023-11-24T19:30:29.856Z,712.82
2023-11-24T19:35:29.815Z,706.84
2023-11-24T19:40:29.754Z,713.57
2023-11-24T19:45:29.633Z,710.56
2023-11-24T19:50:29.610Z,712.82
2023-11-24T19:55:29.577Z,713.57
2023-11-24T20:00:29.470Z,715.09
2023-11-24T20:05:29.390Z,723.53
2023-11-24T20:10:29.370Z,715.84
2023-11-24T20:15:29.273Z,716.60
2023-11-24T20:20:29.191Z,724.30
2023-11-24T20:25:29.133Z,718.90
2023-11-24T20:30:29.081Z,724.30
2023-11-24T20:35:28.982Z,731.37
2023-11-24T20:40:28.993Z,730.58
2023-11-24T20:45:28.850Z,711.31
2023-11-24T20:50:28.787Z,728.21
2023-11-24T20:55:28.725Z,721.98
2023-11-24T21:00:30.086Z,725.86
2023-11-24T21:05:28.598Z,723.53
2023-11-24T21:10:28.559Z,721.20
2023-11-24T21:15:28.525Z,720.43
2023-11-24T21:20:28.443Z,723.53
2023-11-24T21:25:28.450Z,724.30
2023-11-24T21:30:28.295Z,724.30
2023-11-24T21:35:28.203Z,726.64
2023-11-24T21:40:28.218Z,725.08
2023-11-24T21:45:28.080Z,725.86
2023-11-24T21:50:28.015Z,723.53
2023-11-24T21:55:27.985Z,726.64
2023-11-24T22:00:27.917Z,732.96
2023-11-24T22:05:27.823Z,729.79
2023-11-24T22:10:27.802Z,732.17
2023-11-24T22:15:27.683Z,732.17
2023-11-24T22:20:27.617Z,734.56
2023-11-24T22:25:27.606Z,732.96
2023-11-24T22:30:27.497Z,729.79
2023-11-24T22:35:27.381Z,734.56
2023-11-24T22:40:27.407Z,735.36
2023-11-24T22:45:27.267Z,736.97
2023-11-24T22:50:27.216Z,735.36
2023-11-24T22:55:27.175Z,733.76
2023-11-24T23:00:27.127Z,736.16
2023-11-24T23:05:27.029Z,738.58
2023-11-24T23:10:26.984Z,739.39
2023-11-24T23:15:26.866Z,740.20
2023-11-24T23:20:26.837Z,740.20
2023-11-24T23:25:26.798Z,741.83
2023-11-24T23:30:26.681Z,739.39
2023-11-24T23:35:26.623Z,732.96
2023-11-24T23:40:26.616Z,740.20
2023-11-24T23:45:26.485Z,735.36
2023-11-24T23:50:30.667Z,733.76
2023-11-24T23:55:26.364Z,736.97
